sensor_id;sensor_type;location;lat;lon;timestamp;temperature;humidity
64599;SHT31;51008;51.504;11.548;2023-04-26T00:01:21;2.69;84.58
64599;SHT31;51008;51.504;11.548;2023-04-26T00:06:22;2.64;84.53
64599;SHT31;51008;51.504;11.548;2023-04-26T00:11:23;2.62;84.36
64599;SHT31;51008;51.504;11.548;2023-04-26T00:16:24;2.69;84.14
64599;SHT31;51008;51.504;11.548;2023-04-26T00:21:25;2.80;83.90
64599;SHT31;51008;51.504;11.548;2023-04-26T00:26:26;2.80;83.70
64599;SHT31;51008;51.504;11.548;2023-04-26T00:31:27;2.80;83.74
64599;SHT31;51008;51.504;11.548;2023-04-26T00:36:28;2.76;83.65
64599;SHT31;51008;51.504;11.548;2023-04-26T00:41:29;2.67;84.12
64599;SHT31;51008;51.504;11.548;2023-04-26T00:46:30;2.54;84.02
64599;SHT31;51008;51.504;11.548;2023-04-26T00:51:31;2.38;84.48
64599;SHT31;51008;51.504;11.548;2023-04-26T00:56:32;2.28;84.68
64599;SHT31;51008;51.504;11.548;2023-04-26T01:01:34;2.08;85.13
64599;SHT31;51008;51.504;11.548;2023-04-26T01:06:35;1.94;85.33
64599;SHT31;51008;51.504;11.548;2023-04-26T01:11:39;1.84;85.63
64599;SHT31;51008;51.504;11.548;2023-04-26T01:16:41;1.79;86.39
64599;SHT31;51008;51.504;11.548;2023-04-26T01:21:42;1.77;86.53
64599;SHT31;51008;51.504;11.548;2023-04-26T01:26:43;1.76;86.94
64599;SHT31;51008;51.504;11.548;2023-04-26T01:31:44;1.72;87.18
64599;SHT31;51008;51.504;11.548;2023-04-26T01:36:45;1.69;87.27
64599;SHT31;51008;51.504;11.548;2023-04-26T01:41:46;1.72;86.98
64599;SHT31;51008;51.504;11.548;2023-04-26T01:46:47;1.76;86.93
64599;SHT31;51008;51.504;11.548;2023-04-26T01:51:48;1.77;86.81
64599;SHT31;51008;51.504;11.548;2023-04-26T01:56:49;1.80;86.66
64599;SHT31;51008;51.504;11.548;2023-04-26T02:01:50;1.80;86.54
64599;SHT31;51008;51.504;11.548;2023-04-26T02:06:51;1.73;86.40
64599;SHT31;51008;51.504;11.548;2023-04-26T02:11:52;1.66;86.66
64599;SHT31;51008;51.504;11.548;2023-04-26T02:16:53;1.56;86.75
64599;SHT31;51008;51.504;11.548;2023-04-26T02:21:55;1.39;87.23
64599;SHT31;51008;51.504;11.548;2023-04-26T02:26:56;1.32;87.09
64599;SHT31;51008;51.504;11.548;2023-04-26T02:31:57;1.23;87.07
64599;SHT31;51008;51.504;11.548;2023-04-26T02:36:58;1.17;87.41
64599;SHT31;51008;51.504;11.548;2023-04-26T02:41:59;1.16;87.26
64599;SHT31;51008;51.504;11.548;2023-04-26T02:47:00;1.20;87.33
64599;SHT31;51008;51.504;11.548;2023-04-26T02:52:01;1.32;87.33
64599;SHT31;51008;51.504;11.548;2023-04-26T02:57:04;1.37;87.09
64599;SHT31;51008;51.504;11.548;2023-04-26T03:02:04;1.37;87.13
64599;SHT31;51008;51.504;11.548;2023-04-26T03:07:06;1.34;87.17
64599;SHT31;51008;51.504;11.548;2023-04-26T03:12:07;1.35;87.04
64599;SHT31;51008;51.504;11.548;2023-04-26T03:17:09;1.34;87.11
64599;SHT31;51008;51.504;11.548;2023-04-26T03:22:10;1.30;87.01
64599;SHT31;51008;51.504;11.548;2023-04-26T03:27:12;1.21;87.34
64599;SHT31;51008;51.504;11.548;2023-04-26T03:32:13;1.08;87.89
64599;SHT31;51008;51.504;11.548;2023-04-26T03:37:15;0.97;87.85
64599;SHT31;51008;51.504;11.548;2023-04-26T03:42:19;0.96;87.87
64599;SHT31;51008;51.504;11.548;2023-04-26T03:47:21;0.93;87.76
64599;SHT31;51008;51.504;11.548;2023-04-26T03:52:22;0.86;88.02
64599;SHT31;51008;51.504;11.548;2023-04-26T03:57:23;0.90;88.19
64599;SHT31;51008;51.504;11.548;2023-04-26T04:02:24;0.96;88.07
64599;SHT31;51008;51.504;11.548;2023-04-26T04:07:25;1.00;88.20
64599;SHT31;51008;51.504;11.548;2023-04-26T04:12:27;1.10;88.24
64599;SHT31;51008;51.504;11.548;2023-04-26T04:17:28;1.38;87.81
64599;SHT31;51008;51.504;11.548;2023-04-26T04:22:29;1.60;86.64
64599;SHT31;51008;51.504;11.548;2023-04-26T04:27:30;1.93;85.77
64599;SHT31;51008;51.504;11.548;2023-04-26T04:32:31;2.01;85.11
64599;SHT31;51008;51.504;11.548;2023-04-26T04:37:33;1.91;85.81
64599;SHT31;51008;51.504;11.548;2023-04-26T04:42:35;1.90;86.74
64599;SHT31;51008;51.504;11.548;2023-04-26T04:47:38;2.00;87.10
64599;SHT31;51008;51.504;11.548;2023-04-26T04:52:39;2.13;86.91
64599;SHT31;51008;51.504;11.548;2023-04-26T04:57:40;2.34;86.80
64599;SHT31;51008;51.504;11.548;2023-04-26T05:02:41;2.46;86.62
64599;SHT31;51008;51.504;11.548;2023-04-26T05:07:42;2.59;86.53
64599;SHT31;51008;51.504;11.548;2023-04-26T05:12:44;2.80;86.57
64599;SHT31;51008;51.504;11.548;2023-04-26T05:17:45;3.00;86.24
64599;SHT31;51008;51.504;11.548;2023-04-26T05:22:51;3.29;84.48
64599;SHT31;51008;51.504;11.548;2023-04-26T05:27:52;3.56;82.34
64599;SHT31;51008;51.504;11.548;2023-04-26T05:33:19;3.71;82.09
64599;SHT31;51008;51.504;11.548;2023-04-26T05:38:29;3.93;81.02
64599;SHT31;51008;51.504;11.548;2023-04-26T05:43:30;4.09;81.39
64599;SHT31;51008;51.504;11.548;2023-04-26T05:48:31;4.32;81.95
64599;SHT31;51008;51.504;11.548;2023-04-26T05:53:32;4.52;80.61
64599;SHT31;51008;51.504;11.548;2023-04-26T05:58:33;4.80;80.41
64599;SHT31;51008;51.504;11.548;2023-04-26T06:03:35;5.07;77.36
64599;SHT31;51008;51.504;11.548;2023-04-26T06:08:36;5.32;77.63
64599;SHT31;51008;51.504;11.548;2023-04-26T06:13:37;5.30;78.88
64599;SHT31;51008;51.504;11.548;2023-04-26T06:18:40;5.27;79.46
64599;SHT31;51008;51.504;11.548;2023-04-26T06:23:40;5.50;79.54
64599;SHT31;51008;51.504;11.548;2023-04-26T06:28:41;5.67;77.99
64599;SHT31;51008;51.504;11.548;2023-04-26T06:33:43;5.74;79.37
64599;SHT31;51008;51.504;11.548;2023-04-26T06:38:44;5.94;77.54
64599;SHT31;51008;51.504;11.548;2023-04-26T06:43:47;6.17;77.76
64599;SHT31;51008;51.504;11.548;2023-04-26T06:48:55;6.37;79.92
64599;SHT31;51008;51.504;11.548;2023-04-26T06:53:59;6.61;77.83
64599;SHT31;51008;51.504;11.548;2023-04-26T06:59:04;6.69;77.06
64599;SHT31;51008;51.504;11.548;2023-04-26T07:04:05;7.07;73.63
64599;SHT31;51008;51.504;11.548;2023-04-26T07:09:06;7.64;73.42
64599;SHT31;51008;51.504;11.548;2023-04-26T07:14:09;8.17;71.80
64599;SHT31;51008;51.504;11.548;2023-04-26T07:19:10;8.13;72.09
64599;SHT31;51008;51.504;11.548;2023-04-26T07:24:11;8.40;72.16
64599;SHT31;51008;51.504;11.548;2023-04-26T07:29:12;8.69;69.87
64599;SHT31;51008;51.504;11.548;2023-04-26T07:34:13;8.52;67.99
64599;SHT31;51008;51.504;11.548;2023-04-26T07:39:14;8.02;70.08
64599;SHT31;51008;51.504;11.548;2023-04-26T07:44:15;7.93;71.07
64599;SHT31;51008;51.504;11.548;2023-04-26T07:49:16;7.99;69.30
64599;SHT31;51008;51.504;11.548;2023-04-26T07:54:17;8.14;66.46
64599;SHT31;51008;51.504;11.548;2023-04-26T07:59:18;8.04;69.25
64599;SHT31;51008;51.504;11.548;2023-04-26T08:04:29;8.17;67.13
64599;SHT31;51008;51.504;11.548;2023-04-26T08:09:30;8.21;66.17
64599;SHT31;51008;51.504;11.548;2023-04-26T08:14:33;8.06;64.77
64599;SHT31;51008;51.504;11.548;2023-04-26T08:19:35;8.02;65.69
64599;SHT31;51008;51.504;11.548;2023-04-26T08:24:36;8.19;65.05
64599;SHT31;51008;51.504;11.548;2023-04-26T08:29:37;9.82;59.16
64599;SHT31;51008;51.504;11.548;2023-04-26T08:34:38;11.67;59.01
64599;SHT31;51008;51.504;11.548;2023-04-26T08:39:39;11.34;53.92
64599;SHT31;51008;51.504;11.548;2023-04-26T08:44:41;10.59;53.49
64599;SHT31;51008;51.504;11.548;2023-04-26T08:49:43;9.91;56.06
64599;SHT31;51008;51.504;11.548;2023-04-26T08:54:45;9.41;55.48
64599;SHT31;51008;51.504;11.548;2023-04-26T08:59:46;9.53;56.34
64599;SHT31;51008;51.504;11.548;2023-04-26T09:04:49;9.86;52.74
64599;SHT31;51008;51.504;11.548;2023-04-26T09:09:51;10.42;52.98
64599;SHT31;51008;51.504;11.548;2023-04-26T09:14:53;10.20;55.55
64599;SHT31;51008;51.504;11.548;2023-04-26T09:19:54;9.63;59.77
64599;SHT31;51008;51.504;11.548;2023-04-26T09:24:55;9.17;62.89
64599;SHT31;51008;51.504;11.548;2023-04-26T09:30:08;8.96;63.37
64599;SHT31;51008;51.504;11.548;2023-04-26T09:35:41;9.08;63.20
64599;SHT31;51008;51.504;11.548;2023-04-26T09:40:47;10.20;60.87
64599;SHT31;51008;51.504;11.548;2023-04-26T09:45:57;10.66;57.21
64599;SHT31;51008;51.504;11.548;2023-04-26T09:51:08;10.21;56.56
64599;SHT31;51008;51.504;11.548;2023-04-26T10:01:13;9.65;59.22
64599;SHT31;51008;51.504;11.548;2023-04-26T10:06:15;9.39;55.75
64599;SHT31;51008;51.504;11.548;2023-04-26T10:11:16;9.97;57.53
64599;SHT31;51008;51.504;11.548;2023-04-26T10:16:19;9.51;55.61
64599;SHT31;51008;51.504;11.548;2023-04-26T10:21:26;9.31;57.78
64599;SHT31;51008;51.504;11.548;2023-04-26T10:32:14;10.11;55.60
64599;SHT31;51008;51.504;11.548;2023-04-26T10:37:15;10.30;54.70
64599;SHT31;51008;51.504;11.548;2023-04-26T10:47:31;10.30;55.82
64599;SHT31;51008;51.504;11.548;2023-04-26T10:52:33;10.83;52.52
64599;SHT31;51008;51.504;11.548;2023-04-26T10:57:51;10.77;50.63
64599;SHT31;51008;51.504;11.548;2023-04-26T11:08:23;10.56;51.66
64599;SHT31;51008;51.504;11.548;2023-04-26T11:13:23;10.66;52.51
64599;SHT31;51008;51.504;11.548;2023-04-26T11:18:24;10.66;50.69
64599;SHT31;51008;51.504;11.548;2023-04-26T11:23:27;10.62;52.30
64599;SHT31;51008;51.504;11.548;2023-04-26T11:28:29;10.53;52.13
64599;SHT31;51008;51.504;11.548;2023-04-26T11:33:31;10.22;53.68
64599;SHT31;51008;51.504;11.548;2023-04-26T11:38:32;9.96;52.76
64599;SHT31;51008;51.504;11.548;2023-04-26T11:43:34;9.78;53.89
64599;SHT31;51008;51.504;11.548;2023-04-26T11:48:36;9.80;53.88
64599;SHT31;51008;51.504;11.548;2023-04-26T11:53:39;10.08;54.46
64599;SHT31;51008;51.504;11.548;2023-04-26T11:58:48;10.37;55.72
64599;SHT31;51008;51.504;11.548;2023-04-26T12:03:54;10.15;52.47
64599;SHT31;51008;51.504;11.548;2023-04-26T12:08:55;9.80;53.75
64599;SHT31;51008;51.504;11.548;2023-04-26T12:13:57;9.83;54.85
64599;SHT31;51008;51.504;11.548;2023-04-26T12:18:58;10.08;56.20
64599;SHT31;51008;51.504;11.548;2023-04-26T12:23:59;10.48;53.92
64599;SHT31;51008;51.504;11.548;2023-04-26T12:29:00;10.70;53.41
64599;SHT31;51008;51.504;11.548;2023-04-26T12:34:01;10.65;54.22
64599;SHT31;51008;51.504;11.548;2023-04-26T12:39:02;10.14;53.17
64599;SHT31;51008;51.504;11.548;2023-04-26T12:44:03;9.90;56.74
64599;SHT31;51008;51.504;11.548;2023-04-26T12:49:04;9.61;54.56
64599;SHT31;51008;51.504;11.548;2023-04-26T12:54:05;9.78;55.67
64599;SHT31;51008;51.504;11.548;2023-04-26T12:59:06;10.14;53.08
64599;SHT31;51008;51.504;11.548;2023-04-26T13:04:07;10.25;51.65
64599;SHT31;51008;51.504;11.548;2023-04-26T13:09:08;10.56;53.61
64599;SHT31;51008;51.504;11.548;2023-04-26T13:14:09;10.90;50.99
64599;SHT31;51008;51.504;11.548;2023-04-26T13:19:10;10.86;52.17
64599;SHT31;51008;51.504;11.548;2023-04-26T13:24:11;10.31;51.35
64599;SHT31;51008;51.504;11.548;2023-04-26T13:29:12;9.96;54.52
64599;SHT31;51008;51.504;11.548;2023-04-26T13:34:13;9.82;56.66
64599;SHT31;51008;51.504;11.548;2023-04-26T13:39:14;9.87;58.44
64599;SHT31;51008;51.504;11.548;2023-04-26T13:44:15;9.90;55.66
64599;SHT31;51008;51.504;11.548;2023-04-26T13:49:16;9.97;56.00
64599;SHT31;51008;51.504;11.548;2023-04-26T13:54:17;10.03;56.68
64599;SHT31;51008;51.504;11.548;2023-04-26T13:59:19;10.15;53.78
64599;SHT31;51008;51.504;11.548;2023-04-26T14:04:20;10.11;53.49
64599;SHT31;51008;51.504;11.548;2023-04-26T14:09:21;10.00;54.34
64599;SHT31;51008;51.504;11.548;2023-04-26T14:14:22;9.78;54.73
64599;SHT31;51008;51.504;11.548;2023-04-26T14:19:23;9.91;55.92
64599;SHT31;51008;51.504;11.548;2023-04-26T14:24:24;10.15;52.22
64599;SHT31;51008;51.504;11.548;2023-04-26T14:29:25;10.27;51.49
64599;SHT31;51008;51.504;11.548;2023-04-26T14:34:26;10.34;51.26
64599;SHT31;51008;51.504;11.548;2023-04-26T14:39:27;10.44;51.65
64599;SHT31;51008;51.504;11.548;2023-04-26T14:44:27;10.31;52.63
64599;SHT31;51008;51.504;11.548;2023-04-26T14:49:28;10.22;51.16
64599;SHT31;51008;51.504;11.548;2023-04-26T14:54:29;10.52;52.48
64599;SHT31;51008;51.504;11.548;2023-04-26T14:59:31;10.34;52.69
64599;SHT31;51008;51.504;11.548;2023-04-26T15:04:32;10.24;52.49
64599;SHT31;51008;51.504;11.548;2023-04-26T15:09:33;10.34;54.15
64599;SHT31;51008;51.504;11.548;2023-04-26T15:14:34;10.39;55.00
64599;SHT31;51008;51.504;11.548;2023-04-26T15:19:35;10.35;52.85
64599;SHT31;51008;51.504;11.548;2023-04-26T15:24:36;10.42;52.31
64599;SHT31;51008;51.504;11.548;2023-04-26T15:29:38;10.35;52.08
64599;SHT31;51008;51.504;11.548;2023-04-26T15:34:40;10.24;52.88
64599;SHT31;51008;51.504;11.548;2023-04-26T15:39:41;10.18;52.27
64599;SHT31;51008;51.504;11.548;2023-04-26T15:44:42;10.04;53.45
64599;SHT31;51008;51.504;11.548;2023-04-26T15:49:43;9.76;52.86
64599;SHT31;51008;51.504;11.548;2023-04-26T15:54:44;9.62;56.09
64599;SHT31;51008;51.504;11.548;2023-04-26T15:59:45;9.66;56.18
64599;SHT31;51008;51.504;11.548;2023-04-26T16:04:46;9.56;56.80
64599;SHT31;51008;51.504;11.548;2023-04-26T16:09:49;9.58;56.41
64599;SHT31;51008;51.504;11.548;2023-04-26T16:14:50;9.52;55.40
64599;SHT31;51008;51.504;11.548;2023-04-26T16:19:51;9.52;56.26
64599;SHT31;51008;51.504;11.548;2023-04-26T16:24:54;9.53;56.73
64599;SHT31;51008;51.504;11.548;2023-04-26T16:29:56;9.63;55.87
64599;SHT31;51008;51.504;11.548;2023-04-26T16:34:57;9.62;54.92
64599;SHT31;51008;51.504;11.548;2023-04-26T16:39:58;9.56;55.59
64599;SHT31;51008;51.504;11.548;2023-04-26T16:44:59;9.39;54.64
64599;SHT31;51008;51.504;11.548;2023-04-26T16:50:00;9.30;56.24
64599;SHT31;51008;51.504;11.548;2023-04-26T16:55:04;9.13;57.52
64599;SHT31;51008;51.504;11.548;2023-04-26T17:00:05;9.11;58.00
64599;SHT31;51008;51.504;11.548;2023-04-26T17:05:06;9.00;57.19
64599;SHT31;51008;51.504;11.548;2023-04-26T17:10:08;8.97;58.35
64599;SHT31;51008;51.504;11.548;2023-04-26T17:15:09;9.00;59.96
64599;SHT31;51008;51.504;11.548;2023-04-26T17:20:10;8.90;56.73
64599;SHT31;51008;51.504;11.548;2023-04-26T17:25:11;8.97;57.47
64599;SHT31;51008;51.504;11.548;2023-04-26T17:30:13;8.93;58.20
64599;SHT31;51008;51.504;11.548;2023-04-26T17:35:14;8.82;57.25
64599;SHT31;51008;51.504;11.548;2023-04-26T17:40:16;8.56;58.17
64599;SHT31;51008;51.504;11.548;2023-04-26T17:45:17;8.28;58.84
64599;SHT31;51008;51.504;11.548;2023-04-26T17:50:17;8.02;59.78
64599;SHT31;51008;51.504;11.548;2023-04-26T17:55:19;7.85;61.19
64599;SHT31;51008;51.504;11.548;2023-04-26T18:00:20;7.69;62.02
64599;SHT31;51008;51.504;11.548;2023-04-26T18:05:21;7.54;63.46
64599;SHT31;51008;51.504;11.548;2023-04-26T18:10:22;7.33;64.40
64599;SHT31;51008;51.504;11.548;2023-04-26T18:15:23;7.20;65.70
64599;SHT31;51008;51.504;11.548;2023-04-26T18:20:24;7.05;65.87
64599;SHT31;51008;51.504;11.548;2023-04-26T18:25:25;6.95;67.56
64599;SHT31;51008;51.504;11.548;2023-04-26T18:30:26;6.84;67.87
64599;SHT31;51008;51.504;11.548;2023-04-26T18:35:27;6.72;68.53
64599;SHT31;51008;51.504;11.548;2023-04-26T18:40:28;6.64;68.50
64599;SHT31;51008;51.504;11.548;2023-04-26T18:45:29;6.64;68.65
64599;SHT31;51008;51.504;11.548;2023-04-26T18:50:30;6.60;69.10
64599;SHT31;51008;51.504;11.548;2023-04-26T18:55:31;6.58;69.00
64599;SHT31;51008;51.504;11.548;2023-04-26T19:00:36;6.48;68.32
64599;SHT31;51008;51.504;11.548;2023-04-26T19:05:41;6.43;68.33
64599;SHT31;51008;51.504;11.548;2023-04-26T19:10:42;6.47;66.88
64599;SHT31;51008;51.504;11.548;2023-04-26T19:15:43;6.41;67.02
64599;SHT31;51008;51.504;11.548;2023-04-26T19:20:44;6.30;67.09
64599;SHT31;51008;51.504;11.548;2023-04-26T19:25:45;6.17;67.52
64599;SHT31;51008;51.504;11.548;2023-04-26T19:30:46;6.08;67.53
64599;SHT31;51008;51.504;11.548;2023-04-26T19:35:47;6.01;68.16
64599;SHT31;51008;51.504;11.548;2023-04-26T19:40:48;5.94;68.05
64599;SHT31;51008;51.504;11.548;2023-04-26T19:45:49;5.75;68.31
64599;SHT31;51008;51.504;11.548;2023-04-26T19:50:50;5.65;68.98
64599;SHT31;51008;51.504;11.548;2023-04-26T19:55:51;5.48;69.24
64599;SHT31;51008;51.504;11.548;2023-04-26T20:00:52;5.30;70.00
64599;SHT31;51008;51.504;11.548;2023-04-26T20:05:53;5.11;71.95
64599;SHT31;51008;51.504;11.548;2023-04-26T20:10:54;4.89;73.15
64599;SHT31;51008;51.504;11.548;2023-04-26T20:15:55;4.80;72.72
64599;SHT31;51008;51.504;11.548;2023-04-26T20:20:56;4.73;72.57
64599;SHT31;51008;51.504;11.548;2023-04-26T20:25:57;4.77;73.39
64599;SHT31;51008;51.504;11.548;2023-04-26T20:30:57;4.73;73.46
64599;SHT31;51008;51.504;11.548;2023-04-26T20:35:58;4.61;74.31
64599;SHT31;51008;51.504;11.548;2023-04-26T20:40:59;4.47;75.20
64599;SHT31;51008;51.504;11.548;2023-04-26T20:46:00;4.38;75.42
64599;SHT31;51008;51.504;11.548;2023-04-26T20:51:01;4.25;75.82
64599;SHT31;51008;51.504;11.548;2023-04-26T20:56:02;4.19;75.86
64599;SHT31;51008;51.504;11.548;2023-04-26T21:01:03;4.15;76.28
64599;SHT31;51008;51.504;11.548;2023-04-26T21:06:04;4.18;76.42
64599;SHT31;51008;51.504;11.548;2023-04-26T21:11:05;4.23;76.50
64599;SHT31;51008;51.504;11.548;2023-04-26T21:16:06;4.22;76.65
64599;SHT31;51008;51.504;11.548;2023-04-26T21:21:07;4.23;76.20
64599;SHT31;51008;51.504;11.548;2023-04-26T21:26:08;4.25;75.93
64599;SHT31;51008;51.504;11.548;2023-04-26T21:31:09;4.18;75.54
64599;SHT31;51008;51.504;11.548;2023-04-26T21:36:10;4.09;75.45
64599;SHT31;51008;51.504;11.548;2023-04-26T21:41:11;4.04;75.51
64599;SHT31;51008;51.504;11.548;2023-04-26T21:46:12;3.95;75.54
64599;SHT31;51008;51.504;11.548;2023-04-26T21:51:13;3.84;75.67
64599;SHT31;51008;51.504;11.548;2023-04-26T21:56:13;3.71;75.69
64599;SHT31;51008;51.504;11.548;2023-04-26T22:01:14;3.59;75.62
64599;SHT31;51008;51.504;11.548;2023-04-26T22:06:15;3.52;75.98
64599;SHT31;51008;51.504;11.548;2023-04-26T22:11:16;3.43;76.62
64599;SHT31;51008;51.504;11.548;2023-04-26T22:16:17;3.40;76.81
64599;SHT31;51008;51.504;11.548;2023-04-26T22:21:18;3.36;77.22
64599;SHT31;51008;51.504;11.548;2023-04-26T22:26:19;3.35;76.71
64599;SHT31;51008;51.504;11.548;2023-04-26T22:31:20;3.28;76.62
64599;SHT31;51008;51.504;11.548;2023-04-26T22:36:21;3.16;76.87
64599;SHT31;51008;51.504;11.548;2023-04-26T22:41:22;3.01;77.18
64599;SHT31;51008;51.504;11.548;2023-04-26T22:46:23;2.96;77.54
64599;SHT31;51008;51.504;11.548;2023-04-26T22:51:24;2.87;77.65
64599;SHT31;51008;51.504;11.548;2023-04-26T22:56:25;2.76;77.96
64599;SHT31;51008;51.504;11.548;2023-04-26T23:07:31;2.56;78.14
64599;SHT31;51008;51.504;11.548;2023-04-26T23:12:35;2.25;80.07
64599;SHT31;51008;51.504;11.548;2023-04-26T23:17:36;2.29;80.14
64599;SHT31;51008;51.504;11.548;2023-04-26T23:22:41;2.28;80.71
64599;SHT31;51008;51.504;11.548;2023-04-26T23:27:42;2.08;81.07
64599;SHT31;51008;51.504;11.548;2023-04-26T23:32:43;2.04;80.71
64599;SHT31;51008;51.504;11.548;2023-04-26T23:37:44;1.99;80.89
64599;SHT31;51008;51.504;11.548;2023-04-26T23:42:45;1.87;81.06
64599;SHT31;51008;51.504;11.548;2023-04-26T23:47:46;1.72;81.53
64599;SHT31;51008;51.504;11.548;2023-04-26T23:52:47;1.72;81.93
64599;SHT31;51008;51.504;11.548;2023-04-26T23:57:48;1.79;81.89
